Terminal Aerodrome Forecast
Issued by NWS Newport/Morehead City, NC

Home | Current Version | Previous Version | Text Only | Print | Product List | Glossary On
Versions: 1 2 3 4 5 6 7 8 9 10 11 12 13 14 15 16 17 18 19 20 21 22 23 24 25 26
000
FTUS42 KMHX 180300 AAA
TAFEWN
TAF AMD
KEWN 180301Z 1803/1824 00000KT 5SM BR SCT050 BKN250
      TEMPO 1808/1812 2SM BR
     FM181200 25006KT P6SM SCT040 BKN150
     FM181900 24007KT P6SM VCTS BKN050CB=

USA.gov is the U.S. government's official web portal to all federal, state and local government web resources and services.